createdAt,value
2017-12-02T00:01:29.725Z,37.67
2017-12-02T00:03:57.200Z,36.03
2017-12-02T00:06:24.689Z,39.67
2017-12-02T00:08:52.216Z,35.87
2017-12-02T00:11:19.719Z,31.53
2017-12-02T00:13:47.188Z,32.50
2017-12-02T00:16:14.678Z,29.50
2017-12-02T00:18:42.176Z,35.80
2017-12-02T00:21:09.678Z,32.90
2017-12-02T00:23:37.153Z,37.20
2017-12-02T00:26:04.641Z,34.77
2017-12-02T00:28:32.112Z,39.27
2017-12-02T00:30:59.596Z,38.17
2017-12-02T00:33:27.061Z,38.23
2017-12-02T00:35:54.548Z,35.40
2017-12-02T00:38:22.012Z,38.17
2017-12-02T00:40:49.496Z,38.67
2017-12-02T00:43:16.961Z,36.57
2017-12-02T00:45:44.457Z,37.83
2017-12-02T00:48:11.984Z,38.23
2017-12-02T00:50:39.488Z,39.30
2017-12-02T00:53:06.957Z,39.13
2017-12-02T00:55:34.501Z,40.10
2017-12-02T00:58:01.968Z,39.83
2017-12-02T01:00:29.452Z,39.63
2017-12-02T01:02:56.921Z,41.47
2017-12-02T01:05:24.409Z,41.77
2017-12-02T01:07:51.873Z,41.73
2017-12-02T01:10:19.341Z,41.17
2017-12-02T01:12:46.830Z,40.87
2017-12-02T01:15:14.384Z,40.97
2017-12-02T01:17:41.868Z,39.90
2017-12-02T01:20:09.349Z,38.60
2017-12-02T01:22:36.885Z,39.77
2017-12-02T01:25:04.359Z,40.67
2017-12-02T01:27:31.846Z,42.33
2017-12-02T01:29:59.321Z,40.40
2017-12-02T01:32:26.821Z,40.63
2017-12-02T01:34:54.359Z,40.33
2017-12-02T01:37:21.799Z,39.07
2017-12-02T01:39:49.265Z,39.67
2017-12-02T01:42:16.752Z,39.93
2017-12-02T01:44:44.225Z,38.03
2017-12-02T01:47:11.717Z,35.20
2017-12-02T01:49:39.189Z,30.53
2017-12-02T01:52:06.673Z,31.73
2017-12-02T01:54:34.869Z,34.27
2017-12-02T01:57:02.365Z,33.73
2017-12-02T01:59:29.876Z,40.67
2017-12-02T02:01:57.361Z,38.57
2017-12-02T02:04:24.839Z,36.10
2017-12-02T02:06:52.325Z,40.20
2017-12-02T02:09:19.793Z,39.57
2017-12-02T02:11:47.278Z,40.00
2017-12-02T02:14:14.753Z,40.83
2017-12-02T02:16:42.237Z,42.87
2017-12-02T02:19:09.708Z,37.40
2017-12-02T02:21:37.201Z,39.13
2017-12-02T02:24:04.677Z,38.93
2017-12-02T02:26:33.004Z,38.73
2017-12-02T02:29:00.476Z,37.90
2017-12-02T02:31:27.959Z,35.30
2017-12-02T02:33:55.425Z,33.63
2017-12-02T02:36:22.915Z,35.17
2017-12-02T02:38:50.382Z,34.97
2017-12-02T02:41:17.893Z,34.73
2017-12-02T02:43:45.361Z,34.73
2017-12-02T02:46:12.844Z,35.63
2017-12-02T02:48:40.312Z,38.40
2017-12-02T02:51:07.800Z,35.17
2017-12-02T02:53:35.274Z,34.70
2017-12-02T02:56:02.762Z,34.73
2017-12-02T02:58:30.233Z,35.20
2017-12-02T03:00:57.716Z,38.43
2017-12-02T03:03:25.180Z,35.67
2017-12-02T03:05:52.954Z,34.30
2017-12-02T03:08:20.437Z,36.00
2017-12-02T03:10:47.900Z,36.77
2017-12-02T03:13:15.385Z,36.97
2017-12-02T03:15:42.854Z,38.10
2017-12-02T03:18:10.340Z,37.73
2017-12-02T03:20:37.808Z,38.73
2017-12-02T03:23:05.301Z,38.47
2017-12-02T03:25:32.834Z,37.63
2017-12-02T03:28:00.329Z,34.63
2017-12-02T03:30:27.801Z,38.97
2017-12-02T03:32:55.285Z,38.03
2017-12-02T03:35:22.757Z,35.20
2017-12-02T03:37:50.265Z,31.73
2017-12-02T03:40:17.740Z,30.47
2017-12-02T03:42:45.224Z,30.10
2017-12-02T03:45:12.700Z,30.30
2017-12-02T03:47:40.189Z,30.57
2017-12-02T03:50:07.656Z,29.63
2017-12-02T03:52:35.149Z,32.10
2017-12-02T03:55:02.628Z,32.53
2017-12-02T03:57:30.112Z,34.43
2017-12-02T03:59:57.588Z,36.23
2017-12-02T04:02:25.068Z,33.37
2017-12-02T04:04:52.536Z,35.20
2017-12-02T04:07:20.032Z,32.67
2017-12-02T04:09:47.621Z,31.53
2017-12-02T04:12:15.113Z,31.53
2017-12-02T04:14:42.591Z,31.10
2017-12-02T04:17:10.151Z,30.90
2017-12-02T04:19:37.633Z,29.60
2017-12-02T04:22:05.119Z,27.93
2017-12-02T04:24:32.613Z,27.63
2017-12-02T04:27:00.120Z,27.73
2017-12-02T04:29:27.592Z,27.67
2017-12-02T04:31:55.082Z,25.63
2017-12-02T04:34:22.564Z,26.80
2017-12-02T04:36:50.116Z,27.33
2017-12-02T04:39:17.625Z,29.77
2017-12-02T04:41:45.105Z,30.80
2017-12-02T04:44:12.733Z,31.00
2017-12-02T04:46:40.242Z,31.30
2017-12-02T04:49:07.733Z,31.83
2017-12-02T04:51:35.205Z,31.70
2017-12-02T04:54:02.684Z,33.90
2017-12-02T04:56:30.153Z,33.37
2017-12-02T04:58:57.633Z,32.33
2017-12-02T05:01:25.109Z,32.33
2017-12-02T05:03:52.597Z,32.67
2017-12-02T05:06:20.096Z,35.57
2017-12-02T05:08:47.585Z,34.20
2017-12-02T05:11:15.058Z,34.87
2017-12-02T05:13:42.556Z,33.30
2017-12-02T05:16:10.049Z,34.80
2017-12-02T05:18:37.538Z,35.37
2017-12-02T05:21:05.005Z,34.33
2017-12-02T05:23:32.487Z,31.30
2017-12-02T05:25:59.956Z,33.60
2017-12-02T05:28:27.535Z,34.47
2017-12-02T05:30:55.000Z,33.30
2017-12-02T05:33:22.505Z,33.97
2017-12-02T05:35:49.981Z,31.70
2017-12-02T05:38:17.475Z,29.83
2017-12-02T05:40:44.963Z,30.73
2017-12-02T05:43:12.449Z,30.80
2017-12-02T05:45:39.942Z,32.23
2017-12-02T05:48:07.500Z,33.30
2017-12-02T05:50:35.445Z,30.27
2017-12-02T05:53:02.936Z,34.60
2017-12-02T05:55:30.403Z,34.17
2017-12-02T05:57:57.885Z,31.63
2017-12-02T06:00:25.349Z,33.90
2017-12-02T06:02:52.837Z,32.97
2017-12-02T06:05:20.305Z,36.60
2017-12-02T06:07:47.821Z,36.07
2017-12-02T06:10:15.288Z,34.20
2017-12-02T06:12:42.782Z,37.70
2017-12-02T06:15:10.495Z,35.93
2017-12-02T06:17:37.981Z,35.13
2017-12-02T06:20:05.462Z,33.93
2017-12-02T06:22:32.953Z,33.53
2017-12-02T06:25:00.424Z,35.20
2017-12-02T06:27:27.916Z,32.57
2017-12-02T06:29:55.384Z,33.77
2017-12-02T06:32:22.868Z,34.37
2017-12-02T06:34:50.345Z,32.93
2017-12-02T06:37:17.861Z,34.30
2017-12-02T06:39:45.344Z,32.43
2017-12-02T06:42:12.828Z,32.77
2017-12-02T06:44:40.305Z,31.37
2017-12-02T06:47:07.802Z,31.87
2017-12-02T06:49:35.276Z,31.67
2017-12-02T06:52:02.745Z,32.93
2017-12-02T06:54:30.276Z,33.90
2017-12-02T06:56:57.748Z,31.73
2017-12-02T06:59:25.236Z,32.57
2017-12-02T07:01:52.713Z,31.33
2017-12-02T07:04:20.206Z,30.83
2017-12-02T07:06:47.684Z,32.37
2017-12-02T07:09:15.193Z,32.80
2017-12-02T07:11:42.682Z,32.33
2017-12-02T07:14:10.170Z,31.30
2017-12-02T07:16:37.641Z,30.03
2017-12-02T07:19:05.129Z,32.77
2017-12-02T07:21:32.597Z,32.73
2017-12-02T07:24:00.080Z,29.87
2017-12-02T07:26:27.550Z,31.93
2017-12-02T07:28:55.052Z,30.13
2017-12-02T07:31:22.521Z,31.83
2017-12-02T07:33:50.036Z,31.50
2017-12-02T07:36:17.544Z,32.23
2017-12-02T07:38:45.053Z,32.10
2017-12-02T07:41:12.521Z,30.33
2017-12-02T07:43:40.004Z,30.37
2017-12-02T07:46:07.493Z,31.33
2017-12-02T07:48:34.980Z,31.60
2017-12-02T07:51:02.454Z,30.80
2017-12-02T07:53:29.940Z,31.87
2017-12-02T07:55:57.414Z,33.47
2017-12-02T07:58:24.905Z,33.33
2017-12-02T08:00:52.381Z,33.17
2017-12-02T08:03:19.870Z,32.63
2017-12-02T08:05:47.341Z,32.67
2017-12-02T08:08:14.829Z,32.83
2017-12-02T08:10:42.313Z,33.23
2017-12-02T08:13:09.793Z,30.20
2017-12-02T08:15:37.264Z,31.03
2017-12-02T08:18:04.757Z,31.87
2017-12-02T08:20:32.224Z,32.77
2017-12-02T08:22:59.712Z,32.87
2017-12-02T08:25:27.248Z,33.93
2017-12-02T08:27:54.738Z,33.37
2017-12-02T08:30:22.214Z,33.20
2017-12-02T08:32:49.770Z,33.43
2017-12-02T08:35:17.237Z,33.83
2017-12-02T08:37:44.708Z,32.20
2017-12-02T08:40:12.212Z,32.27
2017-12-02T08:42:39.682Z,31.30
2017-12-02T08:45:07.173Z,31.90
2017-12-02T08:47:34.644Z,34.17
2017-12-02T08:50:02.153Z,31.93
2017-12-02T08:52:29.625Z,34.43
2017-12-02T08:54:57.113Z,33.80
2017-12-02T08:57:24.585Z,34.13
2017-12-02T08:59:52.097Z,31.20
2017-12-02T09:02:19.564Z,34.27
2017-12-02T09:04:47.063Z,34.30
2017-12-02T09:07:14.549Z,31.80
2017-12-02T09:09:42.033Z,32.60
2017-12-02T09:12:09.505Z,33.43
2017-12-02T09:14:37.019Z,29.90
2017-12-02T09:17:04.484Z,29.47
2017-12-02T09:19:31.969Z,26.43
2017-12-02T09:21:59.438Z,28.80
2017-12-02T09:24:26.917Z,28.17
2017-12-02T09:26:54.381Z,27.40
2017-12-02T09:29:21.861Z,27.67
2017-12-02T09:31:49.329Z,26.83
2017-12-02T09:34:16.814Z,28.50
2017-12-02T09:36:44.276Z,30.80
2017-12-02T09:39:11.757Z,29.53
2017-12-02T09:41:39.221Z,29.37
2017-12-02T09:44:06.777Z,28.90
2017-12-02T09:46:34.236Z,30.23
2017-12-02T09:49:01.721Z,27.40
2017-12-02T09:51:29.238Z,25.77
2017-12-02T09:53:56.723Z,24.77
2017-12-02T09:56:24.283Z,25.60
2017-12-02T09:58:51.780Z,26.70
2017-12-02T10:01:19.272Z,25.73
2017-12-02T10:03:46.757Z,23.97
2017-12-02T10:06:14.223Z,25.83
2017-12-02T10:08:41.704Z,23.23
2017-12-02T10:11:09.165Z,23.87
2017-12-02T10:13:36.660Z,23.20
2017-12-02T10:16:04.184Z,23.43
2017-12-02T10:18:31.625Z,22.83
2017-12-02T10:20:59.117Z,24.80
2017-12-02T10:23:26.621Z,24.63
2017-12-02T10:25:54.101Z,22.50
2017-12-02T10:28:21.568Z,22.63
2017-12-02T10:30:49.062Z,22.53
2017-12-02T10:33:16.526Z,19.47
2017-12-02T10:35:44.014Z,23.27
2017-12-02T10:38:11.561Z,22.67
2017-12-02T10:40:39.049Z,21.37
2017-12-02T10:43:06.608Z,20.30
2017-12-02T10:45:34.090Z,19.87
2017-12-02T10:48:01.553Z,20.80
2017-12-02T10:50:29.045Z,21.47
2017-12-02T10:52:56.517Z,21.40
2017-12-02T10:55:24.005Z,20.27
2017-12-02T10:57:51.502Z,21.37
2017-12-02T11:00:19.233Z,20.50
2017-12-02T11:02:46.701Z,20.20
2017-12-02T11:05:14.248Z,21.00
2017-12-02T11:07:42.452Z,18.73
2017-12-02T11:10:09.937Z,21.10
2017-12-02T11:12:37.414Z,21.87
2017-12-02T11:15:04.909Z,22.70
2017-12-02T11:17:32.521Z,22.87
2017-12-02T11:20:00.017Z,22.63
2017-12-02T11:22:27.490Z,22.77
2017-12-02T11:24:54.966Z,21.70
2017-12-02T11:27:22.444Z,22.97
2017-12-02T11:29:49.909Z,22.73
2017-12-02T11:32:17.525Z,23.10
2017-12-02T11:34:44.993Z,23.07
2017-12-02T11:37:12.516Z,23.43
2017-12-02T11:39:39.989Z,22.97
2017-12-02T11:42:07.477Z,24.17
2017-12-02T11:44:34.955Z,22.27
2017-12-02T11:47:03.076Z,23.50
2017-12-02T11:49:30.550Z,23.43
2017-12-02T11:51:58.033Z,23.40
2017-12-02T11:54:25.497Z,22.90
2017-12-02T11:56:52.984Z,23.20
2017-12-02T11:59:20.452Z,22.90
2017-12-02T12:01:47.941Z,22.60
2017-12-02T12:04:15.408Z,22.63
2017-12-02T12:06:42.893Z,22.63
2017-12-02T12:09:10.356Z,23.17
2017-12-02T12:11:37.833Z,23.77
2017-12-02T12:14:05.296Z,24.40
2017-12-02T12:16:32.780Z,21.20
2017-12-02T12:19:00.241Z,24.00
2017-12-02T12:21:27.749Z,25.50
2017-12-02T12:23:55.212Z,23.00
2017-12-02T12:26:22.778Z,24.47
2017-12-02T12:28:50.253Z,24.27
2017-12-02T12:31:17.809Z,21.83
2017-12-02T12:33:45.246Z,22.03
2017-12-02T12:36:12.734Z,21.83
2017-12-02T12:38:40.209Z,21.07
2017-12-02T12:41:07.697Z,19.87
2017-12-02T12:43:35.177Z,21.47
2017-12-02T12:46:02.661Z,19.90
2017-12-02T12:48:30.144Z,20.93
2017-12-02T12:50:57.628Z,18.43
2017-12-02T12:53:25.375Z,16.97
2017-12-02T12:55:52.864Z,15.67
2017-12-02T12:58:20.332Z,17.27
2017-12-02T13:00:47.816Z,15.80
2017-12-02T13:03:15.284Z,16.47
2017-12-02T13:05:42.777Z,16.30
2017-12-02T13:08:10.361Z,16.10
2017-12-02T13:10:37.849Z,17.47
2017-12-02T13:13:05.327Z,17.90
2017-12-02T13:15:32.828Z,17.77
2017-12-02T13:18:00.322Z,17.87
2017-12-02T13:20:27.797Z,18.73
2017-12-02T13:22:55.301Z,17.20
2017-12-02T13:25:23.036Z,16.23
2017-12-02T13:27:50.528Z,16.73
2017-12-02T13:30:17.994Z,15.73
2017-12-02T13:32:45.479Z,15.63
2017-12-02T13:35:12.957Z,15.40
2017-12-02T13:37:40.453Z,14.90
2017-12-02T13:40:07.958Z,16.00
2017-12-02T13:42:35.451Z,15.20
2017-12-02T13:45:03.873Z,15.70
2017-12-02T13:47:31.366Z,15.77
2017-12-02T13:49:59.637Z,14.67
2017-12-02T13:52:27.119Z,15.53
2017-12-02T13:54:54.594Z,14.67
2017-12-02T13:57:22.121Z,14.10
2017-12-02T13:59:49.589Z,15.00
2017-12-02T14:02:17.076Z,15.40
2017-12-02T14:04:44.549Z,16.33
2017-12-02T14:07:12.045Z,15.73
2017-12-02T14:09:39.521Z,15.93
2017-12-02T14:12:07.004Z,15.10
2017-12-02T14:14:34.473Z,14.30
2017-12-02T14:17:02.097Z,15.60
2017-12-02T14:19:29.841Z,15.70
2017-12-02T14:21:57.326Z,15.23
2017-12-02T14:24:24.799Z,15.60
2017-12-02T14:26:52.309Z,17.73
2017-12-02T14:29:19.790Z,16.40
2017-12-02T14:31:47.286Z,16.23
2017-12-02T14:34:14.756Z,17.37
2017-12-02T14:36:42.256Z,16.70
2017-12-02T14:39:09.769Z,17.13
2017-12-02T14:41:37.229Z,17.50
2017-12-02T14:44:04.708Z,17.07
2017-12-02T14:46:32.197Z,17.10
2017-12-02T14:48:59.682Z,16.93
2017-12-02T14:51:28.173Z,17.40
2017-12-02T14:53:55.681Z,18.70
2017-12-02T14:56:23.147Z,17.23
2017-12-02T14:58:51.127Z,17.07
2017-12-02T15:01:18.613Z,16.67
2017-12-02T15:03:46.109Z,16.00
2017-12-02T15:06:13.581Z,17.57
2017-12-02T15:08:41.665Z,16.93
2017-12-02T15:11:09.137Z,16.20
2017-12-02T15:13:36.681Z,15.57
2017-12-02T15:16:04.177Z,17.20
2017-12-02T15:18:31.688Z,16.83
2017-12-02T15:20:59.165Z,17.07
2017-12-02T15:23:26.727Z,18.33
2017-12-02T15:25:54.205Z,18.43
2017-12-02T15:28:21.696Z,17.17
2017-12-02T15:30:49.196Z,17.03
2017-12-02T15:33:17.537Z,17.27
2017-12-02T15:35:45.016Z,16.77
2017-12-02T15:38:12.533Z,16.90
2017-12-02T15:40:40.010Z,17.60
2017-12-02T15:43:07.502Z,17.20
2017-12-02T15:45:34.980Z,17.23
2017-12-02T15:48:04.218Z,18.27
2017-12-02T15:50:31.684Z,18.10
2017-12-02T15:52:59.212Z,19.23
2017-12-02T15:55:26.694Z,20.47
2017-12-02T15:57:54.218Z,19.47
2017-12-02T16:00:21.692Z,19.23
2017-12-02T16:02:49.184Z,19.63
2017-12-02T16:05:16.665Z,21.07
2017-12-02T16:07:45.041Z,20.90
2017-12-02T16:10:12.557Z,20.13
2017-12-02T16:12:40.026Z,20.03
2017-12-02T16:15:07.521Z,19.93
2017-12-02T16:17:34.992Z,17.13
2017-12-02T16:20:02.488Z,16.13
2017-12-02T16:22:29.952Z,16.37
2017-12-02T16:24:57.436Z,14.53
2017-12-02T16:27:24.909Z,15.23
2017-12-02T16:29:52.472Z,15.50
2017-12-02T16:32:19.947Z,14.70
2017-12-02T16:34:47.428Z,14.97
2017-12-02T16:37:14.892Z,14.93
2017-12-02T16:39:42.377Z,14.37
2017-12-02T16:42:09.845Z,14.57
2017-12-02T16:44:37.344Z,15.23
2017-12-02T16:47:04.810Z,15.27
2017-12-02T16:49:32.295Z,15.37
2017-12-02T16:51:59.786Z,16.67
2017-12-02T16:54:27.277Z,17.43
2017-12-02T16:56:54.805Z,16.33
2017-12-02T16:59:22.281Z,16.03
2017-12-02T17:01:49.801Z,17.20
2017-12-02T17:04:17.281Z,16.20
2017-12-02T17:06:44.832Z,16.90
2017-12-02T17:09:12.305Z,16.60
2017-12-02T17:11:39.812Z,16.77
2017-12-02T17:14:07.436Z,18.00
2017-12-02T17:16:34.929Z,16.90
2017-12-02T17:19:02.420Z,16.97
2017-12-02T17:21:30.869Z,17.63
2017-12-02T17:23:58.333Z,17.43
2017-12-02T17:26:26.804Z,17.20
2017-12-02T17:28:54.347Z,17.47
2017-12-02T17:31:22.740Z,17.60
2017-12-02T17:33:50.218Z,18.07
2017-12-02T17:36:17.707Z,18.53
2017-12-02T17:38:45.199Z,17.23
2017-12-02T17:41:12.701Z,17.37
2017-12-02T17:43:40.169Z,18.80
2017-12-02T17:46:07.653Z,18.20
2017-12-02T17:48:35.121Z,18.03
2017-12-02T17:51:02.607Z,18.00
2017-12-02T17:53:30.071Z,19.20
2017-12-02T17:55:57.556Z,18.40
2017-12-02T17:58:25.033Z,17.67
2017-12-02T18:00:52.516Z,18.80
2017-12-02T18:03:19.985Z,19.50
2017-12-02T18:05:47.477Z,20.43
2017-12-02T18:08:14.949Z,19.97
2017-12-02T18:10:42.445Z,19.67
2017-12-02T18:13:09.913Z,20.57
2017-12-02T18:15:37.403Z,21.03
2017-12-02T18:18:04.874Z,19.80
2017-12-02T18:20:32.341Z,21.20
2017-12-02T18:22:59.846Z,20.93
2017-12-02T18:25:27.312Z,20.47
2017-12-02T18:27:54.808Z,21.33
2017-12-02T18:30:22.282Z,20.43
2017-12-02T18:32:50.306Z,20.50
2017-12-02T18:35:17.772Z,21.00
2017-12-02T18:37:45.257Z,20.23
2017-12-02T18:40:12.730Z,19.33
2017-12-02T18:42:40.221Z,19.43
2017-12-02T18:45:07.688Z,19.17
2017-12-02T18:47:35.205Z,19.03
2017-12-02T18:50:02.669Z,19.33
2017-12-02T18:52:30.399Z,19.70
2017-12-02T18:54:57.939Z,19.43
2017-12-02T18:57:25.433Z,20.83
2017-12-02T18:59:52.905Z,20.70
2017-12-02T19:02:20.392Z,20.00
2017-12-02T19:04:47.892Z,20.77
2017-12-02T19:07:15.376Z,21.83
2017-12-02T19:09:42.853Z,21.13
2017-12-02T19:12:10.336Z,21.77
2017-12-02T19:14:37.810Z,21.13
2017-12-02T19:17:05.300Z,20.83
2017-12-02T19:19:32.769Z,20.47
2017-12-02T19:22:00.269Z,20.70
2017-12-02T19:24:27.752Z,20.70
2017-12-02T19:26:55.246Z,20.50
2017-12-02T19:29:23.534Z,19.27
2017-12-02T19:31:51.026Z,20.60
2017-12-02T19:34:18.500Z,19.27
2017-12-02T19:36:45.992Z,20.97
2017-12-02T19:39:13.456Z,21.67
2017-12-02T19:41:40.948Z,19.30
2017-12-02T19:44:08.417Z,20.63
2017-12-02T19:46:35.901Z,19.57
2017-12-02T19:49:03.382Z,20.50
2017-12-02T19:51:30.868Z,19.83
2017-12-02T19:53:58.700Z,19.60
2017-12-02T19:56:26.189Z,20.87
2017-12-02T19:58:53.665Z,20.53
2017-12-02T20:01:21.156Z,20.30
2017-12-02T20:03:49.218Z,19.97
2017-12-02T20:06:16.710Z,20.77
2017-12-02T20:08:44.542Z,22.73
2017-12-02T20:11:12.012Z,21.50
2017-12-02T20:13:39.513Z,22.23
2017-12-02T20:16:06.989Z,20.80
2017-12-02T20:18:34.479Z,20.30
2017-12-02T20:21:01.958Z,20.03
2017-12-02T20:23:29.446Z,21.10
2017-12-02T20:25:56.921Z,21.97
2017-12-02T20:28:24.410Z,21.03
2017-12-02T20:30:51.929Z,20.83
2017-12-02T20:33:19.425Z,20.03
2017-12-02T20:35:46.908Z,19.23
2017-12-02T20:38:14.398Z,19.00
2017-12-02T20:40:41.864Z,17.97
2017-12-02T20:43:09.349Z,17.83
2017-12-02T20:45:36.820Z,17.97
2017-12-02T20:48:04.302Z,17.73
2017-12-02T20:50:31.765Z,17.27
2017-12-02T20:52:59.255Z,16.67
2017-12-02T20:55:26.721Z,15.83
2017-12-02T20:57:54.217Z,15.17
2017-12-02T21:00:21.684Z,16.53
2017-12-02T21:02:49.172Z,14.40
2017-12-02T21:05:16.637Z,15.20
2017-12-02T21:07:44.159Z,14.23
2017-12-02T21:10:11.645Z,13.43
2017-12-02T21:12:39.137Z,14.43
2017-12-02T21:15:06.609Z,14.53
2017-12-02T21:17:34.092Z,15.13
2017-12-02T21:20:01.560Z,14.03
2017-12-02T21:22:29.053Z,14.93
2017-12-02T21:24:56.524Z,14.67
2017-12-02T21:27:24.371Z,14.87
2017-12-02T21:29:51.850Z,15.17
2017-12-02T21:32:19.348Z,15.57
2017-12-02T21:34:46.821Z,16.17
2017-12-02T21:37:14.313Z,16.27
2017-12-02T21:39:41.797Z,15.77
2017-12-02T21:42:09.633Z,15.60
2017-12-02T21:44:37.112Z,15.30
2017-12-02T21:47:04.609Z,15.90
2017-12-02T21:49:32.082Z,16.20
2017-12-02T21:51:59.607Z,16.80
2017-12-02T21:54:27.077Z,15.90
2017-12-02T21:56:54.558Z,15.87
2017-12-02T21:59:22.045Z,16.50
2017-12-02T22:01:49.513Z,16.80
2017-12-02T22:04:17.001Z,16.43
2017-12-02T22:06:44.804Z,16.40
2017-12-02T22:09:12.284Z,16.03
2017-12-02T22:11:39.760Z,14.80
2017-12-02T22:14:07.249Z,15.33
2017-12-02T22:16:34.717Z,14.53
2017-12-02T22:19:02.202Z,14.43
2017-12-02T22:21:29.685Z,15.33
2017-12-02T22:23:57.181Z,15.20
2017-12-02T22:26:24.717Z,15.43
2017-12-02T22:28:52.233Z,14.97
2017-12-02T22:31:19.700Z,17.03
2017-12-02T22:33:47.188Z,15.30
2017-12-02T22:36:14.675Z,15.20
2017-12-02T22:38:42.171Z,13.90
2017-12-02T22:41:09.641Z,14.57
2017-12-02T22:43:37.132Z,14.20
2017-12-02T22:46:04.598Z,15.57
2017-12-02T22:48:32.082Z,15.23
2017-12-02T22:50:59.553Z,14.13
2017-12-02T22:53:27.053Z,15.20
2017-12-02T22:55:54.520Z,14.90
2017-12-02T22:58:23.103Z,14.40
2017-12-02T23:00:50.576Z,15.10
2017-12-02T23:03:18.068Z,16.37
2017-12-02T23:05:45.548Z,16.60
2017-12-02T23:08:13.044Z,17.07
2017-12-02T23:10:40.524Z,16.73
2017-12-02T23:13:08.017Z,15.10
2017-12-02T23:15:35.517Z,15.80
2017-12-02T23:18:03.002Z,15.20
2017-12-02T23:20:30.470Z,15.30
2017-12-02T23:22:57.960Z,16.40
2017-12-02T23:25:25.432Z,15.93
2017-12-02T23:27:52.921Z,16.67
2017-12-02T23:30:20.405Z,16.03
2017-12-02T23:32:47.888Z,15.93
2017-12-02T23:35:15.373Z,16.33
2017-12-02T23:37:42.892Z,16.47
2017-12-02T23:40:10.369Z,17.27
2017-12-02T23:42:37.861Z,16.47
2017-12-02T23:45:05.332Z,17.73
2017-12-02T23:47:32.805Z,16.73
2017-12-02T23:50:00.289Z,16.80
2017-12-02T23:52:27.760Z,18.73
2017-12-02T23:54:55.264Z,18.37
2017-12-02T23:57:22.736Z,19.50
2017-12-02T23:59:50.221Z,19.10
